WetterOnline ( https://www.wetteronline.de )

Wetter aktuell Warnsdorf

Aktuelles Wetter: Görlitz (240m)

6-stündlich | Neueste Meldungen
Ortszeit Temperatur Wetter
Mi, 12.08. 20:00 26.5° C wolkenlos
Mi, 12.08. 14:00 28.8° C wolkenlos
Mi, 12.08. 8:00 19.7° C wolkenlos
Mi, 12.08. 2:00 18.9° C wolkenlos
Di, 11.08. 20:00 25.1° C wolkenlos
Di, 11.08. 14:00 29.6° C wolkenlos
Di, 11.08. 8:00 20.5° C wolkenlos
Di, 11.08. 2:00 19.2° C wolkig
Ortszeit Temperatur Wetter
Mi, 12.08. 23:00 22.7° C leicht bewölkt
Mi, 12.08. 22:50 22.7° C leicht bewölkt
Mi, 12.08. 22:40 22.5° C leicht bewölkt
Mi, 12.08. 22:30 23.1° C wolkig
Mi, 12.08. 22:20 23.1° C wolkig
Mi, 12.08. 22:10 23.5° C wolkig
Mi, 12.08. 22:00 23.8° C wolkig
Mi, 12.08. 21:30 24.6° C fast wolkenlos
Mi, 12.08. 21:00 25.1° C wolkenlos
Mi, 12.08. 20:30 25.8° C wolkenlos
Mi, 12.08. 20:00 26.5° C wolkenlos
Ortszeit Relative Feuchte Sichtweite
Mi, 12.08. 20:00 50% 50 km
Mi, 12.08. 14:00 39% 65 km
Mi, 12.08. 8:00 64% 50 km
Mi, 12.08. 2:00 83% 35 km
Di, 11.08. 20:00 54% 60 km
Di, 11.08. 14:00 38% 60 km
Di, 11.08. 8:00 74% 35 km
Di, 11.08. 2:00 92% 18 km
Ortszeit Relative Feuchte Sichtweite
Mi, 12.08. 23:00 62% 45 km
Mi, 12.08. 22:50 62% -
Mi, 12.08. 22:40 63% -
Mi, 12.08. 22:30 61% 40 km
Mi, 12.08. 22:20 61% -
Mi, 12.08. 22:10 59% -
Mi, 12.08. 22:00 58% 35 km
Mi, 12.08. 21:30 56% 45 km
Mi, 12.08. 21:00 55% 50 km
Mi, 12.08. 20:30 52% 40 km
Mi, 12.08. 20:00 50% 50 km
Ortszeit Niederschlagsmenge Niederschlagsart
Mi, 12.08. 20:00 0.0 l/m2 in 12 Std. -
Mi, 12.08. 14:00 0.0 l/m2 in 6 Std. -
Mi, 12.08. 8:00 0.0 l/m2 in 12 Std. -
Mi, 12.08. 2:00 0.0 l/m2 in 6 Std. -
Di, 11.08. 20:00 0.1 l/m2 in 12 Std. Regen
Di, 11.08. 14:00 0.0 l/m2 in 6 Std. -
Di, 11.08. 8:00 0.0 l/m2 in 12 Std. -
Di, 11.08. 2:00 0.0 l/m2 in 6 Std. -
Ortszeit Niederschlagsmenge Niederschlagsart
Mi, 12.08. 23:00 0.0 l/m2 in 1 Std. -
Mi, 12.08. 22:50 keine Meldung -
Mi, 12.08. 22:40 keine Meldung -
Mi, 12.08. 22:30 0.0 l/m2 in 1 Std. -
Mi, 12.08. 22:20 keine Meldung -
Mi, 12.08. 22:10 keine Meldung -
Mi, 12.08. 22:00 0.0 l/m2 in 1 Std. -
Mi, 12.08. 21:30 0.0 l/m2 in 1 Std. -
Mi, 12.08. 21:00 0.0 l/m2 in 1 Std. -
Mi, 12.08. 20:30 0.0 l/m2 in 1 Std. -
Mi, 12.08. 20:00 0.0 l/m2 in 1 Std. -
Ortszeit Stärke Spitze Richtung
km/h Bft. km/h Grad Sektor
Mi, 12.08. 20:00 7 2 29 110° O
Mi, 12.08. 14:00 9 2 24 120° SO
Mi, 12.08. 8:00 4 1 14 90° O
Mi, 12.08. 2:00 9 2 17 50° NO
Di, 11.08. 20:00 7 2 36 100° O
Di, 11.08. 14:00 13 3 31 80° O
Di, 11.08. 8:00 4 1 14 60° NO
Di, 11.08. 2:00 2 1 20 330° NW
Ortszeit Stärke Spitze Richtung
km/h Bft. km/h Grad Sektor
Mi, 12.08. 23:00 9 2 17 80° O
Mi, 12.08. 22:50 9 2 - 80° O
Mi, 12.08. 22:40 7 2 - 70° O
Mi, 12.08. 22:30 9 2 15 70° O
Mi, 12.08. 22:20 9 2 - 70° O
Mi, 12.08. 22:10 9 2 - 80° O
Mi, 12.08. 22:00 11 2 14 90° O
Mi, 12.08. 21:30 9 2 17 80° O
Mi, 12.08. 21:00 7 2 14 80° O
Mi, 12.08. 20:30 9 2 15 100° O
Mi, 12.08. 20:00 7 2 18 110° O
Ortszeit Untergrenze Bedeckung Gattung
total tief tief mittel hoch
Mi, 12.08. 20:00 - 0/8 0/8 - - -
Mi, 12.08. 14:00 - 0/8 0/8 - - -
Mi, 12.08. 8:00 - 0/8 0/8 - - -
Mi, 12.08. 2:00 - 0/8 0/8 - - -
Di, 11.08. 20:00 - 0/8 0/8 - - -
Di, 11.08. 14:00 - 0/8 0/8 - - -
Di, 11.08. 8:00 - 0/8 0/8 - - -
Di, 11.08. 2:00 4800 m 5/8 5/8 - - -
Ortszeit Bedeckungsgrad in Achtel und Wolkenuntergrenze
Mi, 12.08. 23:00 6(10500m)
Mi, 12.08. 22:50 6(10500m)
Mi, 12.08. 22:40 5(10500m)
Mi, 12.08. 22:30 7(10500m) 6(10500m)
Mi, 12.08. 22:20 7(10500m)
Mi, 12.08. 22:10 7(10500m)
Mi, 12.08. 22:00 7(10500m)
Mi, 12.08. 21:30 1(10500m)
Mi, 12.08. 21:00 2(10500m)
Mi, 12.08. 20:30 keine Wolken
Mi, 12.08. 20:00 keine Wolken
Ortszeit Luftdruck NN (hPa) Tendenz (hPa in 3 Std.)
Mi, 12.08. 20:00 1016 - 0,9
Mi, 12.08. 14:00 1018 - 0,7
Mi, 12.08. 8:00 1020 + 0,2
Mi, 12.08. 2:00 1020 + 0,1
Di, 11.08. 20:00 1018 0,0
Di, 11.08. 14:00 1018 - 0,6
Di, 11.08. 8:00 1019 + 0,1
Di, 11.08. 2:00 1018 + 0,2
Ortszeit Luftdruck NN (hPa) Tendenz (hPa in 3 Std.)
Mi, 12.08. 23:00 1017 + 0,2
Mi, 12.08. 22:50 1017 keine Meldung
Mi, 12.08. 22:40 1017 keine Meldung
Mi, 12.08. 22:30 1017 + 0,2
Mi, 12.08. 22:20 1017 keine Meldung
Mi, 12.08. 22:10 1017 keine Meldung
Mi, 12.08. 22:00 1017 + 0,1
Mi, 12.08. 21:30 1017 0,0
Mi, 12.08. 21:00 1017 - 0,3
Mi, 12.08. 20:30 1016 - 0,6
Mi, 12.08. 20:00 1016 - 0,9
Ortszeit Schneehöhe (cm)
Mi, 12.08. 20:00 -
Mi, 12.08. 14:00 -
Mi, 12.08. 8:00 -
Mi, 12.08. 2:00 -
Di, 11.08. 20:00 -
Di, 11.08. 14:00 -
Di, 11.08. 8:00 -
Di, 11.08. 2:00 -
Ortszeit Schneehöhe (cm)
Mi, 12.08. 23:00 -
Mi, 12.08. 22:50 -
Mi, 12.08. 22:40 -
Mi, 12.08. 22:30 -
Mi, 12.08. 22:20 -
Mi, 12.08. 22:10 -
Mi, 12.08. 22:00 -
Mi, 12.08. 21:30 -
Mi, 12.08. 21:00 -
Mi, 12.08. 20:30 -
Mi, 12.08. 20:00 -
Link zu dieser Seite / Seite empfehlen

Das Wetter in ...